Thunder radar more information blitzortung!


avis per Pluja more information rain snow radar


Visita la nostra xarxa de llocs de meteo:

Template documentation
and downloads

And another site



Rain From: 17-10-2018 23:00 Until: 18-10-2018 16:59 warning for: Rain Level: Yellow info button

Pagina Historial Weather Underground text

Diari Resum May 25, 2016 Unitats:  Mètric    Imperial   Tant
« Previous Dia
SegĂźent Dia »
Diari Setmana Mensual Anual Personalitzada
  Maxima: Minima: Media:
Temperatura: -17.8 °C -9.3 °C -6.6 °C
Punt de rosada: -17.8 °C -12 °C -11 °C
Humitat: Humidity % 47 % 60 %
Wind Speed: 0 km/h 0 km/h 7.9 km/h
RĂ fegues de vent: 0 km/h - -
Vent:- - SE
Pression baro: 0 hPa 34222.3 hPa -
Precipitacions: 0 mm    
Historical Graphs
 
 
Dades de taula per May 25, 2016
Temps Temperatura Punt de rosada Pression baro Vent Wind Speed RĂ fegues de vent Humitat Rainfall Rate (Hourly)
-17.8 °C -17.8 °C 0 hPa Calm     Humidity % 0 mm
00:00 -9.2 °C -12 °C 34293.4 hPa WSW 3.1 km/h 3.1 km/h 72 % 0 mm
00:05 -9.2 °C -12 °C 34293.4 hPa WSW 6 km/h 6 km/h 72 % 0 mm
00:10 -9.2 °C -11.9 °C 34293.4 hPa Calm     73 % 0 mm
00:15 -9.3 °C -11.9 °C 34293.4 hPa WSW 3.7 km/h   73 % 0 mm
00:20 -9.3 °C -11.9 °C 34293.4 hPa SW 6 km/h 6 km/h 73 % 0 mm
00:25 -9.3 °C -11.9 °C 34293.4 hPa SW 3.1 km/h 3.1 km/h 74 % 0 mm
06:55 -4.6 °C -10.1 °C 34256.2 hPa Calm   10.3 km/h 54 % 0 mm
07:05 -4.7 °C -10.2 °C 34256.2 hPa SSE 7.7 km/h 7.7 km/h 54 % 0 mm
07:15 -4.7 °C -10.2 °C 34256.2 hPa SE 12.9 km/h 15.6 km/h 54 % 0 mm
07:25 -4.4 °C -10.1 °C 34222.3 hPa Calm   20.8 km/h 53 % 0 mm
07:35 -4.1 °C -9.9 °C 34222.3 hPa SE 2.6 km/h 15.6 km/h 52 % 0 mm
07:45 -4.5 °C -10.2 °C 34256.2 hPa SE 15.6 km/h 15.6 km/h 53 % 0 mm
07:55 -4.7 °C -10.3 °C 34256.2 hPa ESE 15.6 km/h 20.8 km/h 53 % 0 mm
08:05 -4.6 °C -10.4 °C 34256.2 hPa East 15.6 km/h 20.8 km/h 52 % 0 mm
08:15 -4.7 °C -10.3 °C 34256.2 hPa East 18.2 km/h 23.3 km/h 53 % 0 mm
08:25 -4.7 °C -10.2 °C 34256.2 hPa East 15.6 km/h 28.5 km/h 54 % 0 mm
08:35 -4.6 °C -9.9 °C 34256.2 hPa East 12.9 km/h 25.9 km/h 55 % 0 mm
08:45 -4.8 °C -10.2 °C 34256.2 hPa East 15.6 km/h 15.6 km/h 54 % 0 mm
08:55 -4.7 °C -10.3 °C 34256.2 hPa ENE 18.2 km/h 20.8 km/h 53 % 0 mm
09:05 -4.9 °C -10.7 °C 34256.2 hPa East 20.8 km/h 23.3 km/h 52 % 0 mm
09:15 -4.9 °C -10.7 °C 34256.2 hPa East 18.2 km/h 18.2 km/h 52 % 0 mm
09:25 -4.7 °C -10.7 °C 34256.2 hPa East 5.1 km/h 18.2 km/h 51 % 0 mm
09:35 -4.4 °C -10.6 °C 34256.2 hPa SE 7.7 km/h 20.8 km/h 50 % 0 mm
09:45 -4.4 °C -10.7 °C 34256.2 hPa SSW 2.6 km/h 18.2 km/h 49 % 0 mm
09:55 -4.2 °C -10.7 °C 34293.4 hPa SW 5.1 km/h 7.7 km/h 48 % 0 mm
10:05 -4.1 °C -10.7 °C 34256.2 hPa SW 5.1 km/h 10.3 km/h 48 % 0 mm
10:15 -4 °C -10.5 °C 34256.2 hPa SSW 5.1 km/h 5.1 km/h 48 % 0 mm
10:25 -4 °C -10.7 °C 34256.2 hPa SW 5.1 km/h 12.9 km/h 47 % 0 mm
10:35 -3.9 °C -10.7 °C 34256.2 hPa SSW 7.7 km/h 12.9 km/h 47 % 0 mm
10:45 -4.2 °C -10.9 °C 34256.2 hPa South 2.6 km/h 10.3 km/h 47 % 0 mm
10:55 -4.4 °C -10.9 °C 34256.2 hPa South 5.1 km/h 10.3 km/h 48 % 0 mm
11:05 -4.6 °C -11.1 °C 34256.2 hPa East 7.7 km/h 15.6 km/h 48 % 0 mm
11:15 -4.4 °C -10.7 °C 34256.2 hPa East 5.1 km/h 15.6 km/h 49 % 0 mm
11:25 -4.5 °C -10.8 °C 34222.3 hPa ESE 12.9 km/h 20.8 km/h 49 % 0 mm
11:35 -4.2 °C -10.5 °C 34256.2 hPa ESE 7.7 km/h 10.3 km/h 49 % 0 mm
11:45 -4.3 °C -10.7 °C 34256.2 hPa East 7.7 km/h 20.8 km/h 49 % 0 mm
11:55 -4.2 °C -10.6 °C 34256.2 hPa East 5.1 km/h 10.3 km/h 49 % 0 mm
12:05 -3.7 °C -10.4 °C 34222.3 hPa SSW 2.6 km/h 5.1 km/h 47 % 0 mm
12:15 -4.2 °C -10.7 °C 34222.3 hPa SSW 7.7 km/h 12.9 km/h 48 % 0 mm
12:25 -4.6 °C -10.9 °C 34222.3 hPa East 7.7 km/h 20.8 km/h 49 % 0 mm
12:35 -4.5 °C -10.8 °C 34256.2 hPa East 12.9 km/h 15.6 km/h 49 % 0 mm
12:45 -4.7 °C -10.8 °C 34256.2 hPa ESE 2.6 km/h 20.8 km/h 50 % 0 mm
12:55 -4.7 °C -10.8 °C 34256.2 hPa ESE 12.9 km/h 15.6 km/h 50 % 0 mm
13:05 -4.9 °C -11 °C 34256.2 hPa East 7.7 km/h 15.6 km/h 50 % 0 mm
13:15 -5.1 °C -11 °C 34256.2 hPa East 7.7 km/h 15.6 km/h 51 % 0 mm
13:25 -5.1 °C -11.1 °C 34256.2 hPa East 5.1 km/h 12.9 km/h 51 % 0 mm
13:35 -5 °C -11.1 °C 34256.2 hPa East 2.6 km/h 5.1 km/h 50 % 0 mm
13:45 -5 °C -11.1 °C 34256.2 hPa ESE 5.1 km/h 10.3 km/h 50 % 0 mm
13:55 -5.1 °C -10.8 °C 34256.2 hPa South 12.9 km/h 12.9 km/h 52 % 0 mm
14:05 -5.2 °C -10.8 °C 34256.2 hPa SW 7.7 km/h 10.3 km/h 53 % 0 mm
19:13 -5.3 °C -10.9 °C 34256.2 hPa SW 9 km/h 9 km/h 53 % 0 mm
19:18 -5.3 °C -10.9 °C 34256.2 hPa SSW 6 km/h 8 km/h 53 % 0 mm
19:23 -5.4 °C -11 °C 34222.3 hPa SW 9 km/h 9 km/h 53 % 0 mm
19:28 -5.6 °C -11.1 °C 34222.3 hPa WSW 15 km/h 15 km/h 53 % 0 mm
19:33 -5.6 °C -11.2 °C 34222.3 hPa SSW 11.9 km/h 11.9 km/h 53 % 0 mm
19:35 -8.1 °C -11.1 °C 34327.3 hPa East 5.1 km/h 10.3 km/h 71 % 0 mm
19:38 -5.7 °C -11.3 °C 34222.3 hPa WSW 11.9 km/h 11.9 km/h 53 % 0 mm
19:43 -5.8 °C -11.2 °C 34222.3 hPa SSW 11.9 km/h 11.9 km/h 54 % 0 mm
19:45 -8.2 °C -11.1 °C 34327.3 hPa East 5.1 km/h 10.3 km/h 71 % 0 mm
19:48 -5.8 °C -11.2 °C 34222.3 hPa SW 9.3 km/h 9.3 km/h 54 % 0 mm
19:53 -5.8 °C -11.2 °C 34256.2 hPa SW 6.8 km/h 6.8 km/h 54 % 0 mm
19:55 -8.2 °C -11.1 °C 34327.3 hPa East 12.9 km/h 12.9 km/h 72 % 0 mm
20:05 -8.3 °C -11.1 °C 34327.3 hPa ESE 7.7 km/h 7.7 km/h 72 % 0 mm
20:13 -6 °C -11.2 °C 34256.2 hPa WSW 9 km/h 9 km/h 55 % 0 mm
20:15 -8.3 °C -11 °C 34327.3 hPa East 5.1 km/h 12.9 km/h 73 % 0 mm
20:18 -6.1 °C -11.3 °C 34256.2 hPa SW 9 km/h 9 km/h 55 % 0 mm
20:23 -6.1 °C -11.2 °C 34256.2 hPa SW 6 km/h 6 km/h 56 % 0 mm
20:25 -8.3 °C -10.9 °C 34327.3 hPa East 2.6 km/h 7.7 km/h 74 % 0 mm
20:28 -6.1 °C -11.2 °C 34256.2 hPa SW 5.6 km/h 5.6 km/h 56 % 0 mm
20:33 -6.2 °C -11.2 °C 34256.2 hPa SW 6 km/h 6 km/h 56 % 0 mm
20:35 -8.4 °C -10.9 °C 34327.3 hPa East 5.1 km/h 7.7 km/h 75 % 0 mm
20:38 -6.2 °C -11.2 °C 34256.2 hPa SW 6 km/h 6 km/h 56 % 0 mm
20:43 -6.2 °C -11.3 °C 34256.2 hPa SW 3.1 km/h   56 % 0 mm
20:45 -8.4 °C -10.7 °C 34327.3 hPa East 5.1 km/h 7.7 km/h 76 % 0 mm
20:48 -6.2 °C -11.3 °C 34256.2 hPa WSW 5.1 km/h   56 % 0 mm
20:53 -6.3 °C -11.3 °C 34256.2 hPa WSW 3.1 km/h   56 % 0 mm
20:55 -8.4 °C -10.7 °C 34327.3 hPa East 12.9 km/h 12.9 km/h 76 % 0 mm
20:58 -6.3 °C -11.2 °C 34256.2 hPa Calm     57 % 0 mm
21:03 -6.3 °C -11.2 °C 34256.2 hPa SSE 5.1 km/h   57 % 0 mm
21:05 -8.4 °C -10.7 °C 34327.3 hPa ESE 7.7 km/h 10.3 km/h 77 % 0 mm
21:08 -6.4 °C -11.3 °C 34222.3 hPa WSW 3.1 km/h 3.1 km/h 57 % 0 mm
21:13 -6.4 °C -11.3 °C 34222.3 hPa SW 3.1 km/h 3.1 km/h 57 % 0 mm
21:15 -8.5 °C -10.7 °C 34327.3 hPa East 5.1 km/h 7.7 km/h 77 % 0 mm
21:18 -6.4 °C -11.3 °C 34222.3 hPa SW 3.1 km/h   57 % 0 mm
21:23 -6.6 °C -11.4 °C 34256.2 hPa SW 6 km/h 6 km/h 57 % 0 mm
21:25 -8.5 °C -10.7 °C 34327.3 hPa ENE 7.7 km/h 10.3 km/h 78 % 0 mm
21:28 -6.6 °C -11.3 °C 34256.2 hPa Calm     58 % 0 mm
21:33 -6.7 °C -11.4 °C 34256.2 hPa WSW 3.1 km/h   58 % 0 mm
21:35 -8.5 °C -10.7 °C 34327.3 hPa East 5.1 km/h 10.3 km/h 78 % 0 mm
21:38 -6.7 °C -11.6 °C 34256.2 hPa West 6 km/h 6 km/h 57 % 0 mm
21:43 -6.7 °C -11.4 °C 34256.2 hPa WSW 8.5 km/h 8.5 km/h 58 % 0 mm
21:45 -8.5 °C -10.7 °C 34327.3 hPa East 5.1 km/h 10.3 km/h 78 % 0 mm
21:48 -6.8 °C -11.3 °C 34256.2 hPa Calm     59 % 0 mm
21:53 -6.8 °C -11.3 °C 34256.2 hPa Calm     59 % 0 mm
21:55 -8.5 °C -10.5 °C 34327.3 hPa ESE 5.1 km/h 10.3 km/h 79 % 0 mm
21:58 -6.8 °C -11.3 °C 34256.2 hPa Calm     59 % 0 mm
22:03 -6.8 °C -11.3 °C 34256.2 hPa NE 5.1 km/h 5.1 km/h 59 % 0 mm
22:05 -8.4 °C -10.5 °C 34327.3 hPa East 7.7 km/h 12.9 km/h 79 % 0 mm
22:08 -6.8 °C -11.3 °C 34256.2 hPa ENE 9 km/h 9 km/h 59 % 0 mm
22:13 -6.8 °C -11.3 °C 34256.2 hPa East 9 km/h 9 km/h 59 % 0 mm
22:15 -8.4 °C -10.5 °C 34327.3 hPa East 5.1 km/h 5.1 km/h 79 % 0 mm
22:18 -6.9 °C -11.3 °C 34293.4 hPa NE 15 km/h 15 km/h 60 % 0 mm
22:23 -6.9 °C -11.4 °C 34293.4 hPa NE 15 km/h 15 km/h 60 % 0 mm
22:25 -8.4 °C -10.5 °C 34327.3 hPa ESE 12.9 km/h 25.9 km/h 79 % 0 mm
22:29 -7.1 °C -11.5 °C 34293.4 hPa NNE 15 km/h 15 km/h 60 % 0 mm
22:35 -8.5 °C -10.5 °C 34327.3 hPa ESE 12.9 km/h 12.9 km/h 79 % 0 mm
22:39 -7.2 °C -11.3 °C 34293.4 hPa ESE 15 km/h 15 km/h 62 % 0 mm
22:44 -7.3 °C -11.3 °C 34293.4 hPa ENE 9 km/h 9 km/h 63 % 0 mm
22:45 -8.5 °C -10.5 °C 34327.3 hPa ESE 12.9 km/h 12.9 km/h 79 % 0 mm
22:49 -7.3 °C -11.3 °C 34327.3 hPa ENE 11.9 km/h 11.9 km/h 63 % 0 mm
22:54 -7.4 °C -11.3 °C 34327.3 hPa ENE 17.9 km/h 17.9 km/h 64 % 0 mm
22:55 -8.5 °C -10.5 °C 34327.3 hPa East 7.7 km/h 10.3 km/h 79 % 0 mm
22:59 -7.5 °C -11.2 °C 34327.3 hPa East 15 km/h 15 km/h 65 % 0 mm
23:04 -7.6 °C -11.2 °C 34327.3 hPa East 15 km/h 15 km/h 66 % 0 mm
23:05 -8.5 °C -10.5 °C 34293.4 hPa ESE 5.1 km/h 10.3 km/h 79 % 0 mm
23:09 -7.6 °C -11.2 °C 34327.3 hPa NE 9 km/h 9 km/h 66 % 0 mm
23:14 -7.6 °C -11.2 °C 34327.3 hPa East 9 km/h 9 km/h 66 % 0 mm
23:15 -8.5 °C -10.5 °C 34293.4 hPa East 5.1 km/h 10.3 km/h 79 % 0 mm
23:19 -7.7 °C -11.2 °C 34327.3 hPa ENE 15 km/h 15 km/h 67 % 0 mm
23:24 -7.7 °C -11.2 °C 34327.3 hPa ENE 9.3 km/h 9.3 km/h 67 % 0 mm
23:25 -8.5 °C -10.5 °C 34327.3 hPa East 5.1 km/h 10.3 km/h 79 % 0 mm
23:29 -7.7 °C -11.2 °C 34327.3 hPa ESE 15 km/h 15 km/h 67 % 0 mm
23:34 -7.7 °C -11.2 °C 34327.3 hPa East 9 km/h 9 km/h 67 % 0 mm
23:35 -8.5 °C -10.5 °C 34327.3 hPa ENE 5.1 km/h 7.7 km/h 79 % 0 mm
23:39 -7.8 °C -11.2 °C 34327.3 hPa ENE 9 km/h 9 km/h 67 % 0 mm
23:44 -7.8 °C -11.1 °C 34327.3 hPa ENE 9 km/h 9 km/h 68 % 0 mm
23:45 -8.5 °C -10.5 °C 34327.3 hPa ENE 5.1 km/h 7.7 km/h 79 % 0 mm
23:49 -7.8 °C -11.2 °C 34327.3 hPa NNE 6 km/h 6.3 km/h 68 % 0 mm
23:54 -7.9 °C -11.2 °C 34327.3 hPa East 8 km/h 8 km/h 68 % 0 mm
23:55 -8.6 °C -10.7 °C 34327.3 hPa NE 7.7 km/h 10.3 km/h 79 % 0 mm
23:59 -7.9 °C -11.1 °C 34327.3 hPa East 6 km/h 6 km/h 69 % 0 mm
Meteo Sesrovires
Elogis d' Weather Underground - 1.25 mb

Guio original per  Jim McMurry - jmcmurry@mwt.net Adaptat per a la plantilla per  Wim van der Kuil - Leuven-Template.eu

Trobareu la nostra informacio del temps tambe a:

Weather Underground

AWEKAS